createdAt,value
2023-02-16T00:04:49.767Z,55.23
2023-02-16T00:07:18.720Z,56.90
2023-02-16T00:09:47.832Z,56.33
2023-02-16T00:12:38.757Z,58.77
2023-02-16T00:15:19.555Z,57.13
2023-02-16T00:17:48.842Z,55.00
2023-02-16T00:20:19.397Z,55.60
2023-02-16T00:23:06.637Z,55.17
2023-02-16T00:28:39.662Z,52.73
2023-02-16T00:34:19.616Z,52.10
2023-02-16T00:36:48.741Z,51.73
2023-02-16T00:39:17.723Z,51.30
2023-02-16T00:41:54.027Z,53.53
2023-02-16T00:44:28.667Z,56.33
2023-02-16T00:50:08.597Z,58.93
2023-02-16T00:52:39.582Z,59.27
2023-02-16T00:55:11.763Z,57.83
2023-02-16T01:00:33.559Z,64.93
2023-02-16T01:03:07.761Z,65.73
2023-02-16T01:05:38.101Z,67.77
2023-02-16T01:08:28.754Z,65.43
2023-02-16T01:11:14.224Z,70.17
2023-02-16T01:13:47.442Z,69.93
2023-02-16T01:16:19.325Z,70.10
2023-02-16T01:18:50.932Z,69.23
2023-02-16T01:21:22.782Z,68.47
2023-02-16T01:23:52.202Z,67.57
2023-02-16T01:26:22.303Z,68.53
2023-02-16T01:31:37.879Z,70.70
2023-02-16T01:34:08.535Z,68.07
2023-02-16T01:36:40.774Z,65.33
2023-02-16T01:39:11.918Z,64.77
2023-02-16T01:42:10.142Z,64.23
2023-02-16T01:45:01.606Z,60.57
2023-02-16T01:47:38.239Z,60.33
2023-02-16T01:50:19.309Z,59.00
2023-02-16T01:52:55.234Z,56.43
2023-02-16T01:55:44.625Z,54.33
2023-02-16T01:58:21.714Z,53.27
2023-02-16T02:01:24.237Z,51.53
2023-02-16T02:04:10.697Z,50.63
2023-02-16T02:06:41.258Z,50.00
2023-02-16T02:09:15.539Z,50.73
2023-02-16T02:11:51.548Z,46.47
2023-02-16T02:14:25.742Z,44.43
2023-02-16T02:16:58.611Z,44.47
2023-02-16T02:19:30.072Z,43.57
2023-02-16T02:22:36.957Z,42.63
2023-02-16T02:28:37.187Z,43.07
2023-02-16T02:31:13.162Z,46.03
2023-02-16T02:33:54.420Z,44.57
2023-02-16T02:36:34.399Z,43.77
2023-02-16T02:39:34.408Z,44.33
2023-02-16T02:42:11.082Z,45.17
2023-02-16T02:44:53.275Z,45.40
2023-02-16T02:47:23.260Z,48.20
2023-02-16T02:49:53.419Z,49.67
2023-02-16T02:52:24.146Z,51.37
2023-02-16T02:55:10.877Z,49.97
2023-02-16T02:58:02.086Z,52.53
2023-02-16T03:00:46.976Z,52.10
2023-02-16T03:03:23.629Z,53.07
2023-02-16T03:05:57.108Z,55.70
2023-02-16T03:08:30.549Z,55.67
2023-02-16T03:11:20.438Z,58.50
2023-02-16T03:13:56.055Z,61.73
2023-02-16T03:16:30.511Z,67.53
2023-02-16T03:19:17.894Z,68.83
2023-02-16T03:22:04.648Z,73.03
2023-02-16T03:24:52.235Z,75.63
2023-02-16T03:27:42.691Z,78.67
2023-02-16T03:30:14.251Z,78.00
2023-02-16T03:32:46.261Z,78.13
2023-02-16T03:35:16.051Z,77.13
2023-02-16T03:37:46.494Z,74.87
2023-02-16T03:40:30.161Z,72.20
2023-02-16T03:43:03.022Z,70.53
2023-02-16T03:45:35.358Z,71.50
2023-02-16T03:48:06.131Z,67.60
2023-02-16T03:50:35.422Z,68.10
2023-02-16T03:53:10.974Z,69.27
2023-02-16T03:55:42.957Z,65.00
2023-02-16T03:58:15.521Z,70.50
2023-02-16T04:00:44.930Z,68.27
2023-02-16T04:03:15.950Z,66.13
2023-02-16T04:05:46.405Z,63.83
2023-02-16T04:08:15.532Z,64.70
2023-02-16T04:10:44.670Z,67.57
2023-02-16T04:13:31.039Z,67.87
2023-02-16T04:16:00.173Z,67.93
2023-02-16T04:18:30.725Z,65.53
2023-02-16T04:20:59.915Z,67.33
2023-02-16T04:23:28.920Z,67.20
2023-02-16T04:25:58.006Z,62.33
2023-02-16T04:28:27.210Z,61.17
2023-02-16T04:30:56.460Z,62.87
2023-02-16T04:33:25.576Z,62.07
2023-02-16T04:35:56.235Z,61.50
2023-02-16T04:38:26.355Z,62.53
2023-02-16T04:41:12.421Z,61.77
2023-02-16T04:43:41.644Z,62.97
2023-02-16T04:46:10.944Z,63.93
2023-02-16T04:48:40.760Z,63.93
2023-02-16T04:51:11.469Z,62.57
2023-02-16T04:53:57.702Z,64.17
2023-02-16T04:56:26.663Z,60.70
2023-02-16T04:58:55.744Z,59.37
2023-02-16T05:01:43.729Z,59.37
2023-02-16T05:04:13.184Z,56.90
2023-02-16T05:06:43.894Z,55.57
2023-02-16T05:09:13.134Z,54.13
2023-02-16T05:11:59.601Z,54.47
2023-02-16T05:14:46.890Z,53.63
2023-02-16T05:17:17.491Z,52.47
2023-02-16T05:19:47.290Z,51.33
2023-02-16T05:25:04.768Z,52.40
2023-02-16T05:27:33.973Z,51.50
2023-02-16T05:30:03.195Z,53.30
2023-02-16T05:32:32.326Z,49.53
2023-02-16T05:35:01.513Z,50.93
2023-02-16T05:37:32.185Z,50.33
2023-02-16T05:40:01.429Z,52.73
2023-02-16T05:42:30.534Z,50.90
2023-02-16T05:44:59.627Z,50.63
2023-02-16T05:47:28.815Z,51.13
2023-02-16T05:49:57.988Z,51.80
2023-02-16T05:52:27.022Z,51.50
2023-02-16T05:54:57.624Z,50.17
2023-02-16T05:57:26.770Z,50.57
2023-02-16T05:59:55.920Z,52.27
2023-02-16T06:02:43.603Z,56.30
2023-02-16T06:05:12.866Z,56.13
2023-02-16T06:07:59.459Z,58.70
2023-02-16T06:10:47.311Z,57.27
2023-02-16T06:13:16.554Z,57.67
2023-02-16T06:15:45.749Z,61.07
2023-02-16T06:18:15.492Z,63.10
2023-02-16T06:20:44.664Z,65.67
2023-02-16T06:23:14.654Z,61.23
2023-02-16T06:25:45.511Z,64.27
2023-02-16T06:28:14.621Z,66.03
2023-02-16T06:33:30.598Z,102.37
2023-02-16T06:35:59.767Z,80.30
2023-02-16T06:38:28.843Z,75.37
2023-02-16T06:44:18.291Z,64.70
2023-02-16T06:46:48.507Z,62.53
2023-02-16T06:49:18.498Z,63.73
2023-02-16T06:51:47.768Z,60.63
2023-02-16T06:57:24.096Z,58.70
2023-02-16T06:59:53.300Z,57.87
2023-02-16T07:02:39.890Z,56.30
2023-02-16T07:05:09.143Z,57.10
2023-02-16T07:07:38.319Z,54.77
2023-02-16T07:10:08.420Z,52.33
2023-02-16T07:12:39.025Z,53.93
2023-02-16T07:15:08.464Z,53.23
2023-02-16T07:17:37.569Z,53.57
2023-02-16T07:20:25.065Z,52.10
2023-02-16T07:22:54.212Z,53.73
2023-02-16T07:25:25.463Z,53.13
2023-02-16T07:27:55.962Z,53.97
2023-02-16T07:30:25.661Z,55.23
2023-02-16T07:32:54.887Z,53.63
2023-02-16T07:38:30.961Z,54.03
2023-02-16T07:41:00.289Z,55.17
2023-02-16T07:46:17.192Z,53.50
2023-02-16T07:48:49.335Z,51.57
2023-02-16T07:54:09.343Z,53.80
2023-02-16T07:59:44.175Z,52.57
2023-02-16T08:02:17.483Z,50.40
2023-02-16T08:04:46.714Z,53.47
2023-02-16T08:07:15.833Z,54.23
2023-02-16T08:10:02.201Z,55.70
2023-02-16T08:12:31.316Z,55.97
2023-02-16T08:15:01.964Z,58.37
2023-02-16T08:17:31.190Z,58.43
2023-02-16T08:20:17.818Z,63.10
2023-02-16T08:22:47.356Z,64.17
2023-02-16T08:25:16.415Z,65.80
2023-02-16T08:27:45.593Z,64.70
2023-02-16T08:33:22.267Z,63.20
2023-02-16T08:35:51.471Z,63.80
2023-02-16T08:38:21.107Z,62.97
2023-02-16T08:40:50.398Z,63.07
2023-02-16T08:43:19.557Z,60.87
2023-02-16T08:45:51.938Z,59.67
2023-02-16T08:48:21.599Z,59.17
2023-02-16T08:50:54.067Z,56.33
2023-02-16T08:53:23.490Z,55.77
2023-02-16T08:55:56.622Z,55.63
2023-02-16T08:58:26.788Z,56.33
2023-02-16T09:00:57.580Z,55.63
2023-02-16T09:03:27.191Z,56.93
2023-02-16T09:05:56.334Z,57.70
2023-02-16T09:08:25.541Z,56.97
2023-02-16T09:10:54.786Z,51.53
2023-02-16T09:13:24.002Z,48.97
2023-02-16T09:15:53.388Z,49.33
2023-02-16T09:18:24.451Z,46.63
2023-02-16T09:20:53.701Z,48.00
2023-02-16T09:23:22.850Z,49.43
2023-02-16T09:25:52.204Z,48.40
2023-02-16T09:28:21.745Z,48.33
2023-02-16T09:31:08.679Z,47.17
2023-02-16T09:33:39.311Z,48.87
2023-02-16T09:36:09.125Z,46.83
2023-02-16T09:38:39.767Z,47.13
2023-02-16T09:43:58.608Z,45.07
2023-02-16T09:46:28.759Z,43.30
2023-02-16T09:49:17.398Z,41.27
2023-02-16T09:52:07.183Z,39.03
2023-02-16T09:54:59.319Z,39.57
2023-02-16T09:57:57.270Z,39.50
2023-02-16T10:00:32.206Z,38.67
2023-02-16T10:03:04.236Z,38.73
2023-02-16T10:05:44.782Z,36.27
2023-02-16T10:08:16.907Z,36.30
2023-02-16T10:10:49.426Z,37.10
2023-02-16T10:16:30.373Z,36.60
2023-02-16T10:21:50.446Z,35.60
2023-02-16T10:24:19.569Z,35.10
2023-02-16T10:26:49.666Z,34.93
2023-02-16T10:29:37.588Z,36.00
2023-02-16T10:32:12.441Z,34.33
2023-02-16T10:34:47.608Z,34.00
2023-02-16T10:37:31.683Z,31.50
2023-02-16T10:40:11.196Z,30.93
2023-02-16T10:42:44.088Z,30.40
2023-02-16T10:45:20.004Z,29.33
2023-02-16T10:50:38.123Z,32.93
2023-02-16T10:53:11.402Z,32.00
2023-02-16T10:55:42.096Z,31.67
2023-02-16T10:58:18.124Z,36.00
2023-02-16T11:00:50.091Z,37.17
2023-02-16T11:03:20.664Z,40.67
2023-02-16T11:05:50.032Z,41.13
2023-02-16T11:08:19.186Z,42.03
2023-02-16T11:10:52.125Z,43.70
2023-02-16T11:16:26.365Z,45.10
2023-02-16T11:18:59.100Z,46.60
2023-02-16T11:21:43.146Z,48.17
2023-02-16T11:24:14.506Z,51.57
2023-02-16T11:26:45.164Z,52.63
2023-02-16T11:29:20.455Z,55.37
2023-02-16T11:31:49.819Z,56.20
2023-02-16T11:34:26.243Z,55.43
2023-02-16T11:37:03.061Z,55.67
2023-02-16T11:39:35.268Z,57.03
2023-02-16T11:42:07.298Z,56.93
2023-02-16T11:44:37.804Z,53.83
2023-02-16T11:47:08.606Z,55.80
2023-02-16T11:49:38.668Z,57.23
2023-02-16T11:52:51.098Z,58.57
2023-02-16T11:55:22.053Z,59.53
2023-02-16T11:57:52.717Z,56.77
2023-02-16T12:00:23.450Z,55.97
2023-02-16T12:03:22.738Z,55.30
2023-02-16T12:08:49.684Z,53.53
2023-02-16T12:11:26.476Z,55.23
2023-02-16T12:14:03.380Z,51.30
2023-02-16T12:16:37.287Z,51.57
2023-02-16T12:27:44.962Z,51.30
2023-02-16T12:30:23.738Z,52.37
2023-02-16T12:32:59.555Z,53.37
2023-02-16T12:35:39.704Z,51.20
2023-02-16T12:38:14.178Z,53.03
2023-02-16T12:40:48.805Z,56.00
2023-02-16T12:43:26.148Z,54.97
2023-02-16T12:46:17.886Z,52.83
2023-02-16T12:51:57.804Z,54.07
2023-02-16T12:54:30.229Z,53.27
2023-02-16T12:57:04.495Z,56.05
2023-02-16T12:59:36.797Z,60.28
2023-02-16T13:02:14.736Z,62.83
2023-02-16T13:04:46.492Z,63.60
2023-02-16T13:07:18.464Z,61.27
2023-02-16T13:09:52.147Z,62.00
2023-02-16T13:15:15.229Z,68.93
2023-02-16T13:17:49.557Z,61.07
2023-02-16T13:23:27.161Z,71.35
2023-02-16T13:26:01.730Z,68.13
2023-02-16T13:28:38.443Z,69.47
2023-02-16T13:31:12.711Z,67.95
2023-02-16T13:34:09.801Z,73.05
2023-02-16T13:40:32.471Z,81.90
2023-02-16T13:46:05.303Z,81.47
2023-02-16T13:51:31.331Z,113.45
2023-02-16T13:54:28.795Z,118.77
2023-02-16T13:56:57.824Z,118.70
2023-02-16T13:59:55.671Z,120.80
2023-02-16T14:02:39.584Z,118.93
2023-02-16T14:05:12.090Z,125.67
2023-02-16T14:07:42.950Z,123.20
2023-02-16T14:10:32.623Z,121.57
2023-02-16T14:13:01.995Z,118.87
2023-02-16T14:15:31.585Z,119.90
2023-02-16T14:18:00.892Z,120.87
2023-02-16T14:20:31.915Z,113.93
2023-02-16T14:23:02.827Z,121.83
2023-02-16T14:25:36.450Z,120.90
2023-02-16T14:28:07.152Z,116.67
2023-02-16T14:30:38.298Z,120.03
2023-02-16T14:33:09.801Z,119.37
2023-02-16T14:35:57.192Z,119.53
2023-02-16T14:38:29.808Z,117.00
2023-02-16T14:41:00.009Z,118.87
2023-02-16T14:43:48.718Z,117.57
2023-02-16T14:46:27.280Z,119.97
2023-02-16T14:52:16.369Z,132.53
2023-02-16T14:55:36.221Z,123.63
2023-02-16T14:58:14.528Z,120.67
2023-02-16T15:00:47.775Z,122.57
2023-02-16T15:03:18.862Z,120.53
2023-02-16T15:05:53.674Z,122.33
2023-02-16T15:08:24.142Z,114.53
2023-02-16T15:10:54.999Z,119.60
2023-02-16T15:13:26.911Z,116.77
2023-02-16T15:15:57.573Z,116.00
2023-02-16T15:18:29.850Z,118.83
2023-02-16T15:20:59.628Z,117.80
2023-02-16T15:23:30.145Z,120.03
2023-02-16T15:26:00.618Z,121.07
2023-02-16T15:28:32.080Z,120.40
2023-02-16T15:31:02.050Z,125.97
2023-02-16T15:33:57.089Z,125.60
2023-02-16T15:36:27.426Z,124.70
2023-02-16T15:38:58.447Z,119.10
2023-02-16T15:41:28.972Z,120.40
2023-02-16T15:44:00.137Z,121.43
2023-02-16T15:46:31.024Z,127.37
2023-02-16T15:49:00.991Z,121.20
2023-02-16T15:51:31.714Z,124.03
2023-02-16T15:56:50.773Z,120.47
2023-02-16T15:59:24.953Z,121.70
2023-02-16T16:02:15.272Z,127.97
2023-02-16T16:04:45.849Z,124.50
2023-02-16T16:07:16.405Z,132.37
2023-02-16T16:09:46.559Z,131.73
2023-02-16T16:15:23.300Z,127.87
2023-02-16T16:17:53.834Z,130.10
2023-02-16T16:20:31.503Z,134.10
2023-02-16T16:23:01.184Z,131.00
2023-02-16T16:25:32.925Z,130.17
2023-02-16T16:28:02.570Z,127.90
2023-02-16T16:30:33.735Z,135.53
2023-02-16T16:33:03.777Z,144.43
2023-02-16T16:35:54.264Z,143.23
2023-02-16T16:38:25.022Z,131.63
2023-02-16T16:40:55.108Z,140.53
2023-02-16T16:43:43.673Z,130.87
2023-02-16T16:46:15.854Z,126.97
2023-02-16T16:48:46.960Z,131.87
2023-02-16T16:51:17.301Z,136.60
2023-02-16T16:53:57.661Z,140.73
2023-02-16T16:56:27.351Z,137.60
2023-02-16T16:58:58.252Z,149.83
2023-02-16T17:01:30.286Z,134.33
2023-02-16T17:04:00.174Z,131.50
2023-02-16T17:06:29.641Z,131.47
2023-02-16T17:08:58.744Z,132.60
2023-02-16T17:11:31.818Z,133.97
2023-02-16T17:14:03.388Z,128.07
2023-02-16T17:16:36.808Z,134.73
2023-02-16T17:19:05.984Z,135.93
2023-02-16T17:24:39.253Z,132.07
2023-02-16T17:27:09.780Z,128.93
2023-02-16T17:29:39.277Z,125.73
2023-02-16T17:32:09.965Z,127.73
2023-02-16T17:34:39.249Z,128.30
2023-02-16T17:37:08.850Z,129.83
2023-02-16T17:39:37.947Z,124.03
2023-02-16T17:44:55.640Z,128.17
2023-02-16T17:47:26.347Z,119.30
2023-02-16T17:50:15.479Z,120.90
2023-02-16T17:52:45.149Z,121.63
2023-02-16T17:55:14.756Z,126.67
2023-02-16T17:57:43.930Z,122.03
2023-02-16T18:03:05.411Z,118.53
2023-02-16T18:05:34.740Z,113.13
2023-02-16T18:08:04.103Z,112.80
2023-02-16T18:10:52.356Z,115.07
2023-02-16T18:13:21.828Z,117.77
2023-02-16T18:16:09.908Z,108.97
2023-02-16T18:18:59.149Z,110.37
2023-02-16T18:21:28.346Z,109.83
2023-02-16T18:23:57.528Z,114.13
2023-02-16T18:26:28.699Z,110.13
2023-02-16T18:28:57.923Z,113.07
2023-02-16T18:31:27.143Z,113.10
2023-02-16T18:34:13.909Z,119.50
2023-02-16T18:39:30.874Z,123.50
2023-02-16T18:41:59.899Z,116.53
2023-02-16T18:44:29.046Z,113.83
2023-02-16T18:46:59.263Z,110.23
2023-02-16T18:49:28.327Z,107.77
2023-02-16T18:51:59.695Z,108.23
2023-02-16T18:54:29.308Z,110.07
2023-02-16T18:56:58.464Z,115.53
2023-02-16T18:59:46.246Z,109.33
2023-02-16T19:02:15.475Z,114.60
2023-02-16T19:04:45.527Z,114.77
2023-02-16T19:07:16.278Z,102.40
2023-02-16T19:09:45.837Z,99.80
2023-02-16T19:12:14.964Z,100.27
2023-02-16T19:14:44.253Z,107.53
2023-02-16T19:17:13.376Z,109.10
2023-02-16T19:22:30.416Z,121.10
2023-02-16T19:25:17.138Z,121.43
2023-02-16T19:27:48.809Z,118.27
2023-02-16T19:33:07.083Z,119.50
2023-02-16T19:35:36.205Z,113.90
2023-02-16T19:38:06.791Z,127.07
2023-02-16T19:40:35.982Z,131.33
2023-02-16T19:43:05.653Z,123.23
2023-02-16T19:45:41.467Z,126.43
2023-02-16T19:48:11.997Z,127.07
2023-02-16T19:50:41.147Z,134.97
2023-02-16T19:53:11.942Z,130.90
2023-02-16T19:55:42.808Z,136.33
2023-02-16T19:58:12.079Z,137.77
2023-02-16T20:00:41.267Z,134.53
2023-02-16T20:03:10.579Z,137.73
2023-02-16T20:05:58.398Z,156.30
2023-02-16T20:08:48.226Z,151.97
2023-02-16T20:14:04.817Z,137.20
2023-02-16T20:16:34.211Z,144.67
2023-02-16T20:19:03.592Z,139.20
2023-02-16T20:21:50.992Z,138.83
2023-02-16T20:24:21.580Z,139.57
2023-02-16T20:26:52.261Z,144.27
2023-02-16T20:29:22.749Z,136.23
2023-02-16T20:31:53.674Z,140.13
2023-02-16T20:34:42.982Z,136.70
2023-02-16T20:37:12.384Z,135.80
2023-02-16T20:42:31.229Z,134.50
2023-02-16T20:45:01.203Z,138.27
2023-02-16T20:47:32.433Z,140.47
2023-02-16T20:50:02.504Z,131.13
2023-02-16T20:52:35.455Z,134.37
2023-02-16T20:55:10.620Z,136.00
2023-02-16T20:57:58.000Z,134.73
2023-02-16T21:00:27.968Z,135.23
2023-02-16T21:02:57.760Z,136.60
2023-02-16T21:05:27.010Z,135.13
2023-02-16T21:10:43.969Z,135.03
2023-02-16T21:13:13.367Z,132.93
2023-02-16T21:15:59.761Z,132.67
2023-02-16T21:18:30.090Z,137.90
2023-02-16T21:21:01.288Z,135.10
2023-02-16T21:23:30.486Z,131.67
2023-02-16T21:28:48.679Z,136.13
2023-02-16T21:31:36.387Z,133.20
2023-02-16T21:34:41.522Z,132.80
2023-02-16T21:37:10.785Z,130.47
2023-02-16T21:39:57.478Z,128.70
2023-02-16T21:42:28.087Z,147.90
2023-02-16T21:45:10.827Z,156.53
2023-02-16T21:47:57.414Z,148.73
2023-02-16T21:50:26.741Z,133.43
2023-02-16T21:52:55.789Z,136.33
2023-02-16T21:55:42.217Z,132.30
2023-02-16T21:58:12.978Z,128.70
2023-02-16T22:01:01.373Z,130.17
2023-02-16T22:03:30.693Z,128.30
2023-02-16T22:06:04.154Z,129.03
2023-02-16T22:08:33.656Z,132.07
2023-02-16T22:11:06.491Z,128.77
2023-02-16T22:13:37.226Z,124.60
2023-02-16T22:16:11.534Z,126.53
2023-02-16T22:18:41.516Z,126.33
2023-02-16T22:21:10.727Z,125.10
2023-02-16T22:23:40.206Z,124.10
2023-02-16T22:26:09.826Z,123.73
2023-02-16T22:28:40.558Z,122.53
2023-02-16T22:31:10.086Z,118.43
2023-02-16T22:33:39.373Z,119.63
2023-02-16T22:36:11.953Z,124.13
2023-02-16T22:38:41.231Z,119.57
2023-02-16T22:41:11.052Z,119.93
2023-02-16T22:43:41.899Z,119.10
2023-02-16T22:46:14.000Z,117.07
2023-02-16T22:48:43.484Z,114.80
2023-02-16T22:51:14.904Z,117.50
2023-02-16T22:56:30.575Z,110.50
2023-02-16T22:59:01.999Z,110.97
2023-02-16T23:01:32.563Z,109.33
2023-02-16T23:04:02.381Z,113.53
2023-02-16T23:06:32.809Z,108.47
2023-02-16T23:09:03.165Z,107.63
2023-02-16T23:11:32.736Z,107.03
2023-02-16T23:14:03.458Z,108.50
2023-02-16T23:16:32.843Z,104.93
2023-02-16T23:19:02.330Z,105.60
2023-02-16T23:21:32.299Z,106.07
2023-02-16T23:24:02.262Z,106.37
2023-02-16T23:26:32.890Z,106.20
2023-02-16T23:29:21.872Z,103.93
2023-02-16T23:31:51.173Z,106.27
2023-02-16T23:37:07.993Z,100.87
2023-02-16T23:40:13.111Z,101.37
2023-02-16T23:45:30.208Z,104.50
2023-02-16T23:47:59.459Z,104.60
2023-02-16T23:50:28.562Z,104.23
2023-02-16T23:52:57.830Z,100.13
2023-02-16T23:55:26.969Z,97.00
2023-02-16T23:57:56.148Z,93.00
